100LL.CA
Aviation Fuel Pricing for Canadians
Please upgrade your browser - Tested with IE9, FireFox, Chrome, Safari

Fuel Airports Other Help
Prices Economy Info List METAR/TAF Kneeboard Help

Reference Airport: BUFFALO NARROWS, SK
N 55 50 31  W 108 25 03
Provinces to show:

CYVT BUFFALO NARROWS, SK
WEATHER
METARCYVT 230200Z AUTO 12008KT 9SM OVC060 M05/M10 A2983 RMK SLP134
TAFTAF CYVT 222040Z 2221/2304 VRB03KT P6SM SKC BECMG 2300/2302 13008KT RMK FCST BASED ON AUTO OBS. NXT FCST BY 231400Z
OTHER SITES

FlightAware

FltPlan

Google Maps

SkyVector
FUEL
FBO 100LL
member
100LL
public
JETA MOGAS
Snowbird Petroleum (2019-01-31)2.1001.700
  Note: $75 call out charge after hours (M-F 0700-1700 LCL) and on weekends
Canada Flight Supplement - CYVT
(opens in new tab/window)


Please Send Updates!

Desktop Version ]  [ Mobile Version ]  [ Disclaimer ]